AirNav   Free Bose Alto or Rondo audio sunglasses
 
 594 users online  

15XS Toy Airpark
Liverpool, Texas, USA

GOING TO LIVERPOOL?


FAA INFORMATION EFFECTIVE 03 DECEMBER 2020

Location

FAA Identifier: 15XS
Lat/Long: 29-19-57.8590N 095-20-02.7710W
29-19.964317N 095-20.046183W
29.3327386,-95.3341031
(estimated)
Elevation: 36 ft. / 11 m (estimated)
Variation: 05E (1995)
From city: 5 miles NW of LIVERPOOL, TX
Time zone: UTC -6 (UTC -5 during Daylight Saving Time)
Zip code: 77511

Airport Operations

Airport use: Private use. Permission required prior to landing
Activation date: 06/1997
Control tower: no
ARTCC: HOUSTON CENTER
FSS: MONTGOMERY COUNTY FLIGHT SERVICE STATION
Attendance: UNATNDD
Segmented circle: no

Airport Communications

WX ASOS at LVJ (12 nm NE): 118.525 (281-992-1853)
WX AWOS-3 at AXH (13 nm NW): 123.625 (281-431-6572)
WX ASOS at LBX (15 nm SW): 119.925 (979-849-3319)
WX AWOS-3 at EFD (19 nm NE): 135.575 (713-847-4430)
WX ASOS at HOU (19 nm N): PHONE 713-847-1462

Nearby radio navigation aids

VOR radial/distance  VOR name  Freq  Var
VUHr273/24.7SCHOLES VOR/DME113.0006E
MHFr240/33.2TRINITY VOR/DME113.6007E
IAHr174/37.5HUMBLE VORTAC116.6005E

Airport Services

Runway Information

Runway 6/24

Dimensions: 1915 x 70 ft. / 584 x 21 m
Surface: turf
RUNWAY 6  RUNWAY 24
Traffic pattern: leftleft
Displaced threshold: 525 ft.no
Obstructions: 37 ft. pline4 ft. fence

Airport Ownership and Management from official FAA records

Ownership: Privately-owned
Owner: JOHN & SANDRA RICE
8815 COUNTY RD 511
ROSHARON, TX 77583
Phone 713-331-3174
Manager: JOHN & SANDRA RICE
8815 COUNTY RD 511
ROSHARON, TX 77583
Phone 713-331-3174

Airport Operational Statistics

Aircraft based on the field: 2
Single engine airplanes: 2
    

Additional Remarks

FOR CD CTC HOUSTON ARTCC AT 281-230-5622.

Instrument Procedures

There are no published instrument procedures at 15XS.

Some nearby airports with instrument procedures:

KLVJ - Pearland Regional Airport (12 nm NE)
KAXH - Houston Southwest Airport (13 nm NW)
KLBX - Texas Gulf Coast Regional Airport (15 nm SW)
KEFD - Ellington Airport (19 nm NE)
KHOU - William P Hobby Airport (19 nm N)
 
Loc | Ops | Rwys | IFR | FBO | Links
Com | Nav | Svcs | Stats | Notes
Area around 15XS (Toy Airpark)
 
Road maps at: MapQuest Bing Google
 
Aerial photo
No photo
 
Sectional chart

 
Airport distance calculator
Flying to Toy Airpark? Find the distance to fly.

From to 15XS

Sunrise and sunset
Times for 03-Dec-2020
 Local
(UTC-6)
 Zulu
(UTC)
Morning civil twilight06:3612:36
Sunrise07:0213:02
Sunset17:2223:22
Evening civil twilight17:4823:48

Current date and time
Zulu (UTC)  03-Dec-2020 12:16:51
Local (UTC-6)  03-Dec-2020 06:16:51
 
METAR
KLVJ 
12nm N 
031153Z AUTO 34010G17KT 10SM BKN049 OVC065 08/02 A3019 RMK AO2 SLP223 60002 70098 T00830017 10133 20083 53006
KAXH 
13nm NW 
031155Z AUTO 34011G18KT 10SM SCT055 OVC065 08/01 A3019 RMK AO2 70062 T00800009 10125 20080
KLBX 
15nm SW 
031153Z AUTO 34008KT 10SM OVC044 08/02 A3018 RMK AO2 RAE1054 SLP219 P0000 60003 70145 T00830022 10128 20078 53004
KHOU 
18nm N 
031153Z 33010KT 10SM FEW028 BKN055 08/02 A3018 RMK AO2 SLP225 60000 70099 T00830017 10128 20083 53002
KEFD 
18nm NE 
031150Z 33014KT 10SM OVC049 08/01 A3018
KSGR 
24nm NW 
031153Z 35008KT 10SM OVC075 07/02 A3019 RMK AO2 SLP224 70054 T00720022 10111 20072 55002
TAF
KLBX 
15nm SW 
031125Z 0312/0412 35010G20KT P6SM SCT250 FM040000 32006KT P6SM SCT250
KHOU 
18nm N 
031125Z 0312/0412 33015G25KT P6SM SCT035 SCT250 FM031800 33012KT P6SM BKN250 FM040000 33008KT P6SM FEW250
KEFD 
18nm NE 
030400Z 0304/0410 32012KT 9000 -RA BKN008 QNH3005INS BECMG 0305/0306 33012KT 9999 NSW BKN015 QNH3011INS BECMG 0308/0309 33012KT 9999 SCT026 QNH3009INS BECMG 0402/0403 34009KT 9999 BKN020 QNH3018INS TX17/0321Z TN06/0313Z
NOTAMs
Click for the latest NOTAMs
NOTAMs are issued by the DoD/FAA and will open in a separate window not controlled by AirNav.

 

 
 

Would you like to see your business listed on this page?

 If your business provides an interesting product or service to pilots, flight crews, aircraft, or users of the Toy Airpark, you should consider listing it here.  To start the listing process, click on the button below
 
Add a business
 

Other Pages about Toy Airpark

Update a link
 
Copyright © AirNav, LLC. All rights reserved. Privacy Policy  Contact